KWRB/WRB METAR and TAF weather

Enter ICAO airport designator
Station Type Date Time Source
KWRB METAR 2021/03/05 13:56 UTC NOAA

KWRB 051356Z 33005KT 10SM FEW250 12/02 A3010 RMK AO2A SLP195 T01170019


Station Type Date Time Source
KWRB Decoded METAR 2021/03/05 13:56 UTC NOAA

Warner Robins Air Force Base, GA, United States (KWRB) 32-38N 083-36W
Mar 05, 2021 - 08:56 AM EST / 2021.03.05 1356 UTC
Wind: from the NNW (330 degrees) at 6 MPH (5 KT):0
Visibility: 10 mile(s):0
Sky conditions: mostly clear
Temperature: 53.1 F (11.7 C)
Dew Point: 35.4 F (1.9 C)
Relative Humidity: 50%
Pressure (altimeter): 30.1 in. Hg (1019 hPa)
ob: KWRB 051356Z 33005KT 10SM FEW250 12/02 A3010 RMK AO2A SLP195 T01170019
cycle: 14

Station Type Date Time Source
KWRB TAF 2021/03/05 09:58 UTC NOAA

TAF KWRB 050900Z 0509/0615 VRB06KT 9999 SKC QNH3001INS
BECMG 0517/0518 08006KT 9999 SCT140 QNH3004INS
BECMG 0521/0522 08006KT 9999 BKN140 QNH3005INS
BECMG 0602/0603 VRB06KT 9999 BKN080 QNH3011INS
BECMG 0606/0607 VRB06KT 9999 BKN040 QNH3012INS TX19/0521Z TN04/0512Z

Example: see airport list